Time;durP1;ratioP1;P1;durP2;ratioP2;P2;SDS_P1;SDS_P2;PMS_P1;PMS_P2;Temp;Humidity;BMP_temperature;BMP_pressure;BME280_temperature;BME280_humidity;BME280_pressure;Samples;Min_cycle;Max_cycle;Signal;HPM_P1;HPM_P2
2022/08/09 00:01:26;;;;;;;5.47;2.42;;;16.50;99.90;;;;;;5073365;28;20040;-66
2022/08/09 00:03:52;;;;;;;4.32;2.20;;;16.50;99.90;;;;;;5073299;28;20039;-64
2022/08/09 00:06:18;;;;;;;3.80;2.67;;;16.40;99.90;;;;;;5075557;28;20036;-64
2022/08/09 00:08:47;;;;;;;6.60;3.17;;;16.40;99.90;;;;;;5077238;28;20040;-64
2022/08/09 00:11:16;;;;;;;3.65;2.28;;;16.40;99.90;;;;;;5077152;28;20032;-64
2022/08/09 00:13:42;;;;;;;4.85;2.60;;;16.40;99.90;;;;;;5077137;28;20047;-65
2022/08/09 00:16:08;;;;;;;4.00;2.20;;;16.50;99.90;;;;;;5076717;28;20036;-65
2022/08/09 00:18:34;;;;;;;5.50;2.20;;;16.50;99.90;;;;;;5076811;28;20089;-64
2022/08/09 00:21:01;;;;;;;3.25;2.08;;;16.40;99.90;;;;;;5077007;28;20037;-65
2022/08/09 00:23:27;;;;;;;4.88;2.22;;;16.40;99.90;;;;;;5075164;28;20504;-65
2022/08/09 00:25:53;;;;;;;4.05;1.88;;;16.30;99.90;;;;;;5076830;28;20048;-64
2022/08/09 00:28:19;;;;;;;4.22;1.95;;;16.20;99.90;;;;;;5076762;28;20032;-64
2022/08/09 00:30:44;;;;;;;5.85;2.30;;;16.10;99.90;;;;;;5076686;28;20508;-64
2022/08/09 00:33:10;;;;;;;2.58;1.92;;;16.00;99.90;;;;;;5076766;28;20040;-65
2022/08/09 00:35:35;;;;;;;5.25;2.00;;;15.90;99.90;;;;;;5076733;28;20040;-65
2022/08/09 00:38:01;;;;;;;5.38;2.10;;;15.80;99.90;;;;;;5076612;28;20044;-64
2022/08/09 00:40:27;;;;;;;3.63;2.00;;;15.80;99.90;;;;;;5076595;28;20174;-65
2022/08/09 00:42:52;;;;;;;2.70;2.20;;;15.70;99.90;;;;;;5076307;28;20033;-64
2022/08/09 00:45:18;;;;;;;2.80;2.00;;;15.70;99.90;;;;;;5076778;28;20121;-64
2022/08/09 00:47:43;;;;;;;5.78;2.10;;;15.70;99.90;;;;;;5076476;28;20028;-64
2022/08/09 00:50:09;;;;;;;3.88;2.10;;;15.70;99.90;;;;;;5076201;28;20364;-65
2022/08/09 00:52:36;;;;;;;5.78;2.10;;;15.70;99.90;;;;;;5076381;28;20029;-64
2022/08/09 00:55:02;;;;;;;3.92;2.60;;;15.70;99.90;;;;;;5076295;28;20040;-64
2022/08/09 00:57:29;;;;;;;3.35;2.70;;;15.70;99.90;;;;;;5076079;28;20052;-64
2022/08/09 00:59:55;;;;;;;4.32;2.80;;;15.70;99.90;;;;;;5075053;28;20047;-64
2022/08/09 01:02:23;;;;;;;4.30;2.47;;;15.70;99.90;;;;;;5076268;28;20040;-64
2022/08/09 01:05:08;;;;;;;4.70;3.42;;;15.70;99.90;;;;;;5076449;28;20072;-64
2022/08/09 01:07:59;;;;;;;8.07;3.17;;;15.70;99.90;;;;;;5076136;28;20045;-64
2022/08/09 01:11:01;;;;;;;3.28;2.97;;;15.70;99.90;;;;;;5076069;28;20043;-64
2022/08/09 01:13:47;;;;;;;6.93;3.25;;;15.80;99.90;;;;;;5076076;28;20037;-64
2022/08/09 01:16:14;;;;;;;6.22;3.88;;;15.70;99.90;;;;;;5075619;28;20045;-64
2022/08/09 01:18:44;;;;;;;7.03;3.60;;;15.70;99.90;;;;;;5075916;28;20054;-64
2022/08/09 01:21:40;;;;;;;6.40;4.05;;;15.70;99.90;;;;;;5075704;28;20037;-64
2022/08/09 01:24:35;;;;;;;5.30;3.13;;;15.60;99.90;;;;;;5075259;28;20495;-64
2022/08/09 01:27:10;;;;;;;3.67;3.17;;;15.40;99.90;;;;;;5075778;28;20048;-64
2022/08/09 01:29:57;;;;;;;2.42;2.00;;;15.30;99.90;;;;;;5074171;28;20051;-64
2022/08/09 01:32:43;;;;;;;4.03;2.88;;;15.30;99.90;;;;;;5075699;28;20044;-64
2022/08/09 01:35:23;;;;;;;3.55;2.90;;;15.20;99.90;;;;;;5075642;28;20051;-64
2022/08/09 01:37:52;;;;;;;5.70;3.22;;;15.30;99.90;;;;;;5058331;28;20048;-64
2022/08/09 01:40:19;;;;;;;5.68;2.88;;;15.10;99.90;;;;;;5075566;28;20072;-64
2022/08/09 01:42:46;;;;;;;2.88;2.33;;;15.10;99.90;;;;;;5075345;28;20470;-64
2022/08/09 01:45:12;;;;;;;4.55;2.70;;;15.00;99.90;;;;;;5075319;28;20044;-64
2022/08/09 01:47:40;;;;;;;5.40;3.28;;;15.10;99.90;;;;;;5075675;28;20048;-64
2022/08/09 01:50:08;;;;;;;2.65;2.45;;;14.90;99.90;;;;;;5075286;28;20029;-64
2022/08/09 01:52:35;;;;;;;3.03;2.22;;;15.00;99.90;;;;;;5075199;28;20047;-65
2022/08/09 01:55:02;;;;;;;2.60;2.40;;;14.90;99.90;;;;;;5075190;28;20041;-64
2022/08/09 01:57:36;;;;;;;4.00;2.67;;;14.90;99.90;;;;;;5075080;28;20135;-64
2022/08/09 02:00:05;;;;;;;2.88;2.47;;;14.80;99.90;;;;;;5075348;28;20040;-64
2022/08/09 02:02:33;;;;;;;5.70;2.67;;;14.80;99.90;;;;;;5073578;28;20051;-64
2022/08/09 02:05:03;;;;;;;3.75;2.50;;;14.80;99.90;;;;;;5074844;28;20123;-64
2022/08/09 02:07:33;;;;;;;3.42;2.30;;;14.80;99.90;;;;;;5073912;28;20548;-64
2022/08/09 02:10:03;;;;;;;3.75;2.70;;;14.80;99.90;;;;;;5057128;28;20441;-64
2022/08/09 02:12:31;;;;;;;4.38;2.47;;;14.80;99.90;;;;;;5074874;28;20029;-64
2022/08/09 02:14:59;;;;;;;2.95;2.20;;;14.80;99.90;;;;;;5073578;28;20048;-64
2022/08/09 02:17:28;;;;;;;3.15;1.88;;;14.80;99.90;;;;;;5074813;28;20090;-63
2022/08/09 02:19:55;;;;;;;3.25;2.10;;;14.80;99.90;;;;;;5074647;28;20037;-64
2022/08/09 02:22:37;;;;;;;5.10;2.08;;;14.80;99.90;;;;;;5074294;28;20043;-62
2022/08/09 02:25:11;;;;;;;3.00;2.30;;;14.70;99.90;;;;;;5074343;28;20105;-63
2022/08/09 02:27:41;;;;;;;2.45;2.20;;;14.70;99.90;;;;;;5074255;28;20415;-64
2022/08/09 02:30:08;;;;;;;3.03;2.40;;;14.60;99.90;;;;;;5074107;28;20135;-64
2022/08/09 02:32:40;;;;;;;3.05;2.30;;;14.70;99.90;;;;;;5074511;28;20048;-65
2022/08/09 02:35:13;;;;;;;4.50;2.75;;;14.70;99.90;;;;;;5074353;28;20044;-64
2022/08/09 02:37:41;;;;;;;3.15;2.40;;;14.70;99.90;;;;;;5074406;28;20044;-64
2022/08/09 02:40:13;;;;;;;3.53;3.00;;;14.70;99.90;;;;;;5074409;28;20048;-63
2022/08/09 02:42:43;;;;;;;3.83;2.83;;;14.60;99.90;;;;;;5074176;28;20044;-64
2022/08/09 02:45:13;;;;;;;3.47;2.40;;;14.50;99.90;;;;;;5073915;28;20502;-64
2022/08/09 02:47:42;;;;;;;3.00;2.13;;;14.50;99.90;;;;;;5074199;28;20102;-63
2022/08/09 02:50:18;;;;;;;3.22;2.38;;;14.50;99.90;;;;;;5074241;28;20041;-64
2022/08/09 02:52:50;;;;;;;2.83;2.50;;;14.50;99.90;;;;;;5073851;28;20033;-64
2022/08/09 02:55:16;;;;;;;4.00;2.60;;;14.40;99.90;;;;;;5074247;28;20051;-64
2022/08/09 02:57:44;;;;;;;6.28;2.67;;;14.50;99.90;;;;;;5074064;28;20082;-64
2022/08/09 03:00:11;;;;;;;2.75;2.40;;;14.50;99.90;;;;;;5074004;28;20094;-65
2022/08/09 03:02:40;;;;;;;3.53;2.60;;;14.50;99.90;;;;;;5073038;28;20049;-64
2022/08/09 03:05:08;;;;;;;4.10;2.80;;;14.50;99.90;;;;;;5073698;28;20530;-64
2022/08/09 03:07:35;;;;;;;2.90;2.30;;;14.50;99.90;;;;;;5072560;28;20037;-64
2022/08/09 03:10:02;;;;;;;6.53;1.90;;;14.40;99.90;;;;;;5073933;28;20046;-64
2022/08/09 03:12:29;;;;;;;5.40;2.30;;;14.50;99.90;;;;;;5073813;28;20036;-64
2022/08/09 03:14:56;;;;;;;4.00;2.30;;;14.50;99.90;;;;;;5073819;28;20090;-64
2022/08/09 03:17:23;;;;;;;3.55;2.78;;;14.40;99.90;;;;;;5073871;28;20139;-65
2022/08/09 03:19:50;;;;;;;3.72;2.50;;;14.40;99.90;;;;;;5073750;28;20032;-64
2022/08/09 03:22:18;;;;;;;2.47;2.28;;;14.40;99.90;;;;;;5073521;28;20052;-63
2022/08/09 03:24:44;;;;;;;4.63;2.42;;;14.50;99.90;;;;;;5073715;28;20080;-64
2022/08/09 03:27:11;;;;;;;3.50;2.35;;;14.40;99.90;;;;;;5073685;28;20525;-64
2022/08/09 03:29:38;;;;;;;2.88;2.15;;;14.40;99.90;;;;;;5073695;28;20037;-64
2022/08/09 03:32:06;;;;;;;2.50;2.25;;;14.40;99.90;;;;;;5073712;28;20037;-63
2022/08/09 03:34:32;;;;;;;5.15;2.53;;;14.30;99.90;;;;;;5073541;28;20044;-64
2022/08/09 03:36:58;;;;;;;3.13;2.25;;;14.40;99.90;;;;;;5073612;28;20142;-63
2022/08/09 03:39:24;;;;;;;3.58;2.47;;;14.40;99.90;;;;;;5074440;28;20398;-64
2022/08/09 03:41:50;;;;;;;4.30;2.42;;;14.40;99.90;;;;;;5077651;28;20050;-64
2022/08/09 03:44:16;;;;;;;5.07;3.25;;;14.30;99.90;;;;;;5077611;28;20046;-64
2022/08/09 03:46:43;;;;;;;3.70;2.50;;;14.30;99.90;;;;;;5077368;28;20482;-64
2022/08/09 03:49:09;;;;;;;3.03;2.40;;;14.30;99.90;;;;;;5077352;28;20483;-64
2022/08/09 03:51:38;;;;;;;4.80;2.88;;;14.40;99.90;;;;;;5076495;28;20068;-64
2022/08/09 03:54:05;;;;;;;8.82;3.45;;;14.30;99.90;;;;;;5077558;28;20437;-64
2022/08/09 03:56:30;;;;;;;4.07;2.75;;;14.30;99.90;;;;;;5077375;28;20417;-65
2022/08/09 03:58:56;;;;;;;4.68;3.10;;;14.30;99.90;;;;;;5077435;28;20043;-64
2022/08/09 04:01:23;;;;;;;3.70;2.33;;;14.40;99.90;;;;;;5077382;28;20044;-65
2022/08/09 04:03:51;;;;;;;3.38;2.55;;;14.30;99.90;;;;;;5077356;28;20040;-65
2022/08/09 04:06:17;;;;;;;5.60;2.53;;;14.30;99.90;;;;;;5077196;28;20048;-64
2022/08/09 04:08:43;;;;;;;3.67;2.60;;;14.30;99.90;;;;;;5077195;28;20040;-64
2022/08/09 04:11:10;;;;;;;2.95;2.50;;;14.30;99.90;;;;;;5077069;28;20040;-64
2022/08/09 04:13:35;;;;;;;4.65;2.85;;;14.30;99.90;;;;;;5077172;28;20064;-64
2022/08/09 04:16:01;;;;;;;5.25;2.70;;;14.30;99.90;;;;;;5077101;28;20045;-64
2022/08/09 04:18:27;;;;;;;6.47;2.30;;;14.20;99.90;;;;;;5075747;28;20498;-64
2022/08/09 04:20:52;;;;;;;5.72;2.90;;;14.30;99.90;;;;;;5076806;28;20044;-64
2022/08/09 04:23:20;;;;;;;4.20;2.75;;;14.20;99.90;;;;;;5076642;28;20134;-64
2022/08/09 04:25:45;;;;;;;4.00;2.50;;;14.20;99.90;;;;;;5076830;28;20520;-64
2022/08/09 04:28:11;;;;;;;4.00;2.58;;;14.20;99.90;;;;;;5076879;28;20040;-64
2022/08/09 04:30:37;;;;;;;2.40;2.20;;;14.20;99.90;;;;;;5076787;28;20086;-65
2022/08/09 04:33:02;;;;;;;3.47;2.88;;;14.20;99.90;;;;;;5076768;28;20467;-65
2022/08/09 04:35:28;;;;;;;2.83;2.47;;;14.20;99.90;;;;;;5076784;28;20075;-64
2022/08/09 04:37:54;;;;;;;4.38;2.60;;;14.20;99.90;;;;;;5076659;28;20036;-65
2022/08/09 04:40:19;;;;;;;3.70;2.15;;;14.30;99.90;;;;;;5075634;28;20105;-65
2022/08/09 04:42:46;;;;;;;2.80;2.20;;;14.30;99.90;;;;;;5076030;28;20471;-64
2022/08/09 04:45:12;;;;;;;4.38;2.53;;;14.30;99.90;;;;;;5076465;28;20098;-65
2022/08/09 04:47:37;;;;;;;6.45;2.70;;;14.40;99.90;;;;;;5075188;28;20045;-64
2022/08/09 04:50:03;;;;;;;6.05;2.60;;;14.40;99.90;;;;;;5076489;28;20082;-64
2022/08/09 04:52:29;;;;;;;4.57;2.67;;;14.40;99.90;;;;;;5073968;28;20049;-65
2022/08/09 04:54:56;;;;;;;3.80;2.45;;;14.50;99.90;;;;;;5076394;28;20116;-64
2022/08/09 04:57:22;;;;;;;3.60;2.67;;;14.60;99.90;;;;;;5076309;28;20475;-64
2022/08/09 04:59:48;;;;;;;3.60;3.17;;;14.60;99.90;;;;;;5076183;28;20036;-64
2022/08/09 05:02:13;;;;;;;3.75;2.85;;;14.60;99.90;;;;;;5076241;28;20040;-64
2022/08/09 05:04:39;;;;;;;4.00;2.85;;;14.70;99.90;;;;;;5076110;28;20044;-64
2022/08/09 05:07:05;;;;;;;3.65;2.72;;;14.70;99.90;;;;;;5076053;28;20036;-64
2022/08/09 05:09:31;;;;;;;5.38;2.85;;;14.80;99.90;;;;;;5076163;28;20032;-64
2022/08/09 05:11:59;;;;;;;5.45;3.20;;;14.80;99.90;;;;;;5075969;28;20037;-64
2022/08/09 05:14:25;;;;;;;4.63;3.38;;;14.90;99.90;;;;;;5076038;28;20040;-64
2022/08/09 05:16:51;;;;;;;5.15;2.90;;;14.90;99.90;;;;;;5076039;28;20139;-64
2022/08/09 05:19:20;;;;;;;3.75;3.28;;;15.00;99.90;;;;;;5075917;28;20032;-64
2022/08/09 05:21:49;;;;;;;3.13;2.83;;;15.00;99.90;;;;;;5075831;28;20040;-64
2022/08/09 05:24:15;;;;;;;;;;;15.10;99.90;;;;;;5075857;28;20040;-64
2022/08/09 05:26:40;;;;;;;4.97;3.40;;;15.20;99.90;;;;;;5074297;28;20354;-64
2022/08/09 05:29:06;;;;;;;5.75;2.92;;;15.30;99.90;;;;;;5075776;28;20083;-63
2022/08/09 05:31:32;;;;;;;4.40;2.95;;;15.40;99.90;;;;;;5075716;28;20071;-64
2022/08/09 05:33:58;;;;;;;3.13;2.80;;;15.50;99.90;;;;;;5075603;28;20036;-64
2022/08/09 05:36:24;;;;;;;4.68;3.15;;;15.60;99.90;;;;;;5075473;28;20033;-64
2022/08/09 05:38:49;;;;;;;4.85;2.75;;;15.70;99.90;;;;;;5075388;28;20044;-64
2022/08/09 05:41:15;;;;;;;8.02;3.78;;;15.90;99.90;;;;;;5074105;28;20040;-64
2022/08/09 05:43:40;;;;;;;3.53;3.10;;;15.90;99.90;;;;;;5073747;28;20140;-63
2022/08/09 05:46:06;;;;;;;5.68;4.15;;;16.10;99.90;;;;;;5075455;28;20040;-62
2022/08/09 05:48:32;;;;;;;7.13;3.42;;;16.20;99.90;;;;;;5075359;28;20111;-63
2022/08/09 05:50:58;;;;;;;9.27;4.90;;;16.20;99.90;;;;;;5075150;28;20068;-62
2022/08/09 05:53:23;;;;;;;5.22;3.55;;;16.40;99.90;;;;;;5075258;28;20052;-63
2022/08/09 05:55:49;;;;;;;7.35;5.15;;;16.40;99.90;;;;;;5075108;28;20037;-62
2022/08/09 05:58:14;;;;;;;8.02;3.90;;;16.60;99.90;;;;;;5075066;28;20482;-63
2022/08/09 06:00:40;;;;;;;4.20;3.60;;;16.60;99.90;;;;;;5075091;28;20047;-63
2022/08/09 06:03:06;;;;;;;6.05;4.57;;;16.70;99.90;;;;;;5074005;28;20390;-63
2022/08/09 06:05:32;;;;;;;7.57;3.65;;;16.90;99.90;;;;;;5074806;28;20119;-63
2022/08/09 06:07:59;;;;;;;6.60;3.95;;;17.10;99.90;;;;;;5075006;28;20036;-63
2022/08/09 06:10:36;;;;;;;5.68;4.25;;;17.20;99.90;;;;;;5074916;28;20036;-64
2022/08/09 06:13:11;;;;;;;5.95;3.42;;;17.40;99.90;;;;;;5075027;28;20064;-63
2022/08/09 06:15:37;;;;;;;4.45;2.53;;;17.50;99.90;;;;;;5074829;28;20133;-64
2022/08/09 06:18:03;;;;;;;6.25;2.17;;;17.60;99.90;;;;;;5074685;28;20036;-63
2022/08/09 06:20:28;;;;;;;4.15;2.33;;;17.80;99.90;;;;;;5075399;28;20032;-64
2022/08/09 06:22:54;;;;;;;3.05;1.98;;;17.90;99.90;;;;;;5074330;28;20486;-64
2022/08/09 06:25:20;;;;;;;5.72;2.45;;;18.00;99.90;;;;;;5073491;28;20395;-63
2022/08/09 06:27:46;;;;;;;6.68;2.30;;;18.20;99.90;;;;;;5074518;28;20068;-63
2022/08/09 06:30:11;;;;;;;12.45;2.25;;;18.40;99.90;;;;;;5074479;28;20476;-63
2022/08/09 06:32:37;;;;;;;2.83;1.65;;;18.60;99.90;;;;;;5074402;28;20079;-62
2022/08/09 06:35:03;;;;;;;4.78;2.20;;;18.80;99.90;;;;;;5074478;28;20043;-63
2022/08/09 06:37:29;;;;;;;3.92;2.17;;;18.90;99.90;;;;;;5073615;28;20037;-63
2022/08/09 06:39:55;;;;;;;4.95;2.10;;;19.00;99.90;;;;;;5074345;28;20047;-63
2022/08/09 06:42:20;;;;;;;2.25;1.20;;;19.10;99.90;;;;;;5074292;28;20525;-63
2022/08/09 06:44:47;;;;;;;5.18;1.40;;;19.30;99.90;;;;;;5074203;28;20037;-63
2022/08/09 06:47:13;;;;;;;6.32;1.50;;;19.60;99.90;;;;;;5074176;28;20043;-63
2022/08/09 06:49:39;;;;;;;3.80;1.50;;;19.80;99.90;;;;;;5074166;28;20033;-62
2022/08/09 06:52:04;;;;;;;5.45;1.55;;;20.00;99.90;;;;;;5074159;28;20368;-62
2022/08/09 06:54:30;;;;;;;3.15;1.13;;;20.20;99.90;;;;;;5074153;28;20047;-62
2022/08/09 06:56:56;;;;;;;3.10;1.30;;;20.10;99.90;;;;;;5073959;28;20032;-63
2022/08/09 06:59:22;;;;;;;7.00;1.20;;;20.30;99.90;;;;;;5074101;28;20086;-62
2022/08/09 07:01:47;;;;;;;3.83;1.02;;;20.60;99.90;;;;;;5073972;28;20033;-62
2022/08/09 07:04:13;;;;;;;3.38;1.10;;;20.90;99.90;;;;;;5073960;28;20040;-61
2022/08/09 07:06:39;;;;;;;5.05;1.52;;;21.20;99.90;;;;;;5074323;28;20086;-62
2022/08/09 07:09:04;;;;;;;2.92;0.70;;;21.10;99.90;;;;;;5073839;28;20065;-63
2022/08/09 07:11:30;;;;;;;2.55;0.98;;;21.50;99.90;;;;;;5073972;28;20037;-63
2022/08/09 07:13:56;;;;;;;6.93;1.42;;;21.70;99.90;;;;;;5073565;28;20475;-63
2022/08/09 07:16:21;;;;;;;3.08;1.00;;;21.80;99.90;;;;;;5073848;28;20068;-63
2022/08/09 07:18:47;;;;;;;6.72;1.45;;;22.00;99.90;;;;;;5074114;28;20036;-63
2022/08/09 07:21:13;;;;;;;1.67;1.10;;;22.10;99.90;;;;;;5073591;28;20041;-63
2022/08/09 07:23:40;;;;;;;4.03;1.67;;;22.10;99.90;;;;;;5073428;28;20049;-63
2022/08/09 07:26:07;;;;;;;5.97;1.77;;;22.00;99.90;;;;;;5073622;28;20090;-63
2022/08/09 07:28:32;;;;;;;2.72;1.23;;;22.30;99.90;;;;;;5073737;28;20040;-63
2022/08/09 07:30:58;;;;;;;1.48;1.00;;;22.70;99.90;;;;;;5073681;28;20541;-63
2022/08/09 07:33:24;;;;;;;2.30;0.90;;;23.00;99.90;;;;;;5073707;28;20510;-63
2022/08/09 07:35:50;;;;;;;3.13;1.45;;;23.20;99.90;;;;;;5073553;28;20044;-63
2022/08/09 07:38:15;;;;;;;3.50;1.10;;;23.30;99.90;;;;;;5073656;28;20111;-63
2022/08/09 07:40:41;;;;;;;3.42;1.40;;;23.60;99.90;;;;;;5073635;28;20048;-62
2022/08/09 07:43:07;;;;;;;2.28;1.30;;;23.20;99.90;;;;;;5073523;28;20049;-63
2022/08/09 07:45:32;;;;;;;2.13;0.90;;;23.30;99.90;;;;;;5073485;28;20387;-62
2022/08/09 07:47:58;;;;;;;2.65;1.30;;;23.80;99.90;;;;;;5073546;28;20378;-63
2022/08/09 07:50:26;;;;;;;3.50;1.10;;;24.10;99.90;;;;;;5073507;28;20040;-63
2022/08/09 07:52:52;;;;;;;5.90;1.10;;;23.80;99.90;;;;;;5073260;28;20498;-63
2022/08/09 07:55:18;;;;;;;2.00;0.90;;;23.90;99.90;;;;;;5071914;28;20045;-63
2022/08/09 07:57:47;;;;;;;3.17;0.85;;;24.30;99.90;;;;;;5073558;28;20041;-63
2022/08/09 08:00:16;;;;;;;;;;;24.20;99.90;;;;;;5073837;28;20044;-63
2022/08/09 08:02:42;;;;;;;2.90;0.90;;;24.60;99.90;;;;;;5073438;28;19916;-63
2022/08/09 08:05:08;;;;;;;3.70;1.00;;;25.30;99.90;;;;;;5073191;28;20041;-63
2022/08/09 08:07:34;;;;;;;1.42;0.80;;;24.90;99.90;;;;;;5073270;28;20040;-61
2022/08/09 08:09:59;;;;;;;2.15;0.70;;;24.80;99.90;;;;;;5073235;28;20119;-62
2022/08/09 08:12:25;;;;;;;1.42;1.00;;;24.30;99.90;;;;;;5073459;28;20044;-62
2022/08/09 08:14:51;;;;;;;1.42;0.70;;;23.80;99.90;;;;;;5073698;28;20048;-62
2022/08/09 08:17:17;;;;;;;4.65;1.00;;;23.40;99.90;;;;;;5073336;28;20045;-63
2022/08/09 08:19:42;;;;;;;2.40;0.70;;;23.10;99.90;;;;;;5072049;28;20098;-63
2022/08/09 08:22:08;;;;;;;1.45;0.50;;;22.90;99.90;;;;;;5073019;28;20048;-63
2022/08/09 08:24:34;;;;;;;0.85;0.65;;;23.00;99.90;;;;;;5072920;28;20131;-63
2022/08/09 08:26:59;;;;;;;1.80;0.55;;;24.40;99.90;;;;;;5074484;28;20080;-63
2022/08/09 08:29:25;;;;;;;5.07;0.73;;;25.00;99.90;;;;;;5075660;28;20109;-62
2022/08/09 08:31:51;;;;;;;1.70;0.85;;;24.80;99.90;;;;;;5076550;28;20037;-62
2022/08/09 08:34:17;;;;;;;1.67;0.80;;;24.20;99.90;;;;;;5076629;28;20097;-63
2022/08/09 08:36:42;;;;;;;1.25;0.70;;;24.10;99.90;;;;;;5075391;28;20076;-63
2022/08/09 08:39:08;;;;;;;4.13;1.08;;;23.90;99.90;;;;;;5076649;28;20036;-63
2022/08/09 08:41:36;;;;;;;2.33;0.65;;;23.80;99.90;;;;;;5076736;28;20045;-61
2022/08/09 08:44:02;;;;;;;2.53;0.85;;;23.10;99.90;;;;;;5076479;28;20044;-63
2022/08/09 08:46:37;;;;;;;8.40;0.90;;;23.20;99.90;;;;;;5076617;28;20059;-63
2022/08/09 08:49:04;;;;;;;6.63;0.90;;;22.90;99.90;;;;;;5076545;28;20115;-63
2022/08/09 08:51:30;;;;;;;2.15;0.60;;;22.70;99.90;;;;;;5076376;28;20078;-62
2022/08/09 08:53:56;;;;;;;2.08;0.82;;;22.80;99.90;;;;;;5076430;28;20047;-62
2022/08/09 08:56:22;;;;;;;1.90;0.90;;;22.90;99.90;;;;;;5076316;28;20045;-62
2022/08/09 08:58:48;;;;;;;3.30;1.35;;;23.00;99.90;;;;;;5076382;28;20040;-62
2022/08/09 09:01:17;;;;;;;3.97;0.93;;;23.10;99.90;;;;;;5076136;28;20036;-62
2022/08/09 09:03:44;;;;;;;1.45;0.90;;;23.10;99.90;;;;;;5076054;28;20052;-62
2022/08/09 09:06:13;;;;;;;3.08;0.80;;;23.30;99.90;;;;;;5074913;28;20036;-62
2022/08/09 09:08:41;;;;;;;3.38;0.80;;;23.30;99.90;;;;;;5076165;28;20040;-63
2022/08/09 09:11:08;;;;;;;3.80;1.00;;;23.30;99.90;;;;;;5076072;28;20037;-63
2022/08/09 09:13:38;;;;;;;1.85;0.90;;;23.50;99.90;;;;;;5076079;28;20032;-63
2022/08/09 09:16:04;;;;;;;1.55;0.57;;;23.50;99.90;;;;;;5075874;28;20491;-62
2022/08/09 09:18:30;;;;;;;3.30;0.88;;;23.50;99.90;;;;;;5075881;28;20387;-63
2022/08/09 09:20:56;;;;;;;1.40;0.60;;;23.60;99.90;;;;;;5074807;28;20040;-63
2022/08/09 09:23:42;;;;;;;1.10;0.63;;;23.70;99.90;;;;;;5075345;28;20055;-63
2022/08/09 09:26:09;;;;;;;3.50;0.80;;;23.70;99.90;;;;;;5075660;28;20505;-63
2022/08/09 09:28:36;;;;;;;2.08;0.90;;;23.90;99.90;;;;;;5075790;28;20037;-63
2022/08/09 09:31:04;;;;;;;2.45;0.88;;;23.90;99.90;;;;;;5075633;28;20033;-61
2022/08/09 09:33:35;;;;;;;0.85;0.60;;;24.50;99.90;;;;;;5075648;28;20051;-62
2022/08/09 09:36:04;;;;;;;2.42;0.70;;;24.60;99.90;;;;;;5075609;28;20087;-62
2022/08/09 09:38:40;;;;;;;0.73;0.60;;;24.30;99.90;;;;;;5075428;28;20037;-62
2022/08/09 09:41:07;;;;;;;3.88;0.80;;;24.00;99.90;;;;;;5075530;28;20079;-62
2022/08/09 09:43:33;;;;;;;1.65;0.70;;;24.20;99.90;;;;;;5075421;28;20094;-62
2022/08/09 09:46:02;;;;;;;2.90;0.68;;;24.00;99.90;;;;;;5075562;28;20072;-62
2022/08/09 09:48:28;;;;;;;2.13;0.88;;;25.60;99.90;;;;;;5075440;28;20033;-62
2022/08/09 09:50:55;;;;;;;1.40;0.60;;;26.90;99.90;;;;;;5075134;28;20033;-62
2022/08/09 09:53:23;;;;;;;5.47;0.43;;;28.50;99.90;;;;;;5075224;28;20037;-62
2022/08/09 09:56:00;;;;;;;0.88;0.43;;;28.50;99.90;;;;;;5075248;28;20043;-62
2022/08/09 09:58:46;;;;;;;1.40;0.57;;;29.80;99.90;;;;;;5075231;28;20044;-62
2022/08/09 10:01:20;;;;;;;1.50;0.50;;;30.30;99.90;;;;;;5075135;28;20049;-61
2022/08/09 10:03:50;;;;;;;0.63;0.50;;;30.70;99.60;;;;;;5075003;28;20044;-61
2022/08/09 10:06:17;;;;;;;3.35;0.30;;;30.90;99.40;;;;;;5075081;28;20040;-62
2022/08/09 10:08:48;;;;;;;3.42;0.47;;;30.30;98.90;;;;;;5073532;28;20391;-62
2022/08/09 10:11:18;;;;;;;3.75;0.75;;;29.30;99.90;;;;;;5074938;28;20040;-61
2022/08/09 10:13:45;;;;;;;3.38;0.60;;;30.30;98.90;;;;;;5074595;28;20097;-62
2022/08/09 10:16:11;;;;;;;1.17;0.43;;;29.80;99.20;;;;;;5074704;28;20079;-61
2022/08/09 10:18:37;;;;;;;1.33;0.52;;;30.10;98.80;;;;;;5074815;28;20068;-63
2022/08/09 10:21:09;;;;;;;1.08;0.30;;;30.50;98.80;;;;;;5074320;28;20047;-62
2022/08/09 10:23:36;;;;;;;2.35;0.63;;;30.80;98.40;;;;;;5074193;28;20441;-62
2022/08/09 10:26:03;;;;;;;1.67;0.40;;;29.30;98.50;;;;;;5074568;28;20124;-62
2022/08/09 10:28:32;;;;;;;0.75;0.38;;;29.70;99.20;;;;;;5074672;28;20112;-62
2022/08/09 10:30:58;;;;;;;0.57;0.22;;;30.70;98.20;;;;;;5074428;28;20097;-62
2022/08/09 10:33:24;;;;;;;0.70;0.35;;;30.80;96.90;;;;;;5074773;28;20040;-62
2022/08/09 10:35:51;;;;;;;0.88;0.32;;;31.30;97.30;;;;;;5072914;28;20055;-62
2022/08/09 10:38:18;;;;;;;3.30;0.35;;;31.90;97.30;;;;;;5072601;28;20048;-62
2022/08/09 10:40:44;;;;;;;1.95;0.32;;;32.10;96.60;;;;;;5074141;28;20383;-63
2022/08/09 10:43:11;;;;;;;0.65;0.50;;;31.90;96.50;;;;;;5074576;28;20068;-61
2022/08/09 10:45:38;;;;;;;2.83;0.40;;;32.40;96.80;;;;;;5071768;28;20028;-61
2022/08/09 10:48:37;;;;;;;0.95;0.50;;;32.50;96.40;;;;;;5071545;28;20036;-62
2022/08/09 10:51:08;;;;;;;0.33;0.30;;;33.20;95.80;;;;;;5073070;28;20037;-61
2022/08/09 10:54:01;;;;;;;1.23;0.47;;;31.40;95.50;;;;;;5070795;28;20416;-62
2022/08/09 10:56:34;;;;;;;1.58;0.35;;;31.60;96.90;;;;;;5054010;28;20488;-63
2022/08/09 10:59:27;;;;;;;0.17;0.17;;;30.70;97.30;;;;;;5054449;28;20492;-63
2022/08/09 11:01:53;;;;;;;3.28;1.15;;;30.90;98.30;;;;;;5066973;28;20052;-62
2022/08/09 11:04:26;;;;;;;0.60;0.25;;;30.20;97.60;;;;;;5073018;28;20044;-63
2022/08/09 11:06:57;;;;;;;0.55;0.20;;;30.00;97.60;;;;;;5074262;28;20044;-63
2022/08/09 11:09:41;;;;;;;3.72;0.40;;;30.90;96.80;;;;;;5073941;28;20040;-63
2022/08/09 11:12:24;;;;;;;1.10;0.32;;;31.40;97.40;;;;;;5072811;28;20037;-63
2022/08/09 11:14:55;;;;;;;0.95;0.25;;;30.70;96.40;;;;;;5072387;28;20434;-63
2022/08/09 11:17:21;;;;;;;8.77;0.55;;;30.00;97.40;;;;;;5072658;28;20145;-63
2022/08/09 11:19:49;;;;;;;0.90;0.22;;;29.30;96.90;;;;;;5073862;28;20120;-63
2022/08/09 11:22:16;;;;;;;1.52;0.40;;;29.90;97.10;;;;;;5072403;28;20538;-61
2022/08/09 11:25:13;;;;;;;0.55;0.40;;;29.80;97.00;;;;;;5073252;28;20063;-62
2022/08/09 11:27:49;;;;;;;0.65;0.20;;;31.00;95.90;;;;;;5073894;28;20072;-62
2022/08/09 11:30:21;;;;;;;1.83;0.30;;;32.00;95.90;;;;;;5073732;28;20120;-63
2022/08/09 11:32:49;;;;;;;1.20;0.52;;;31.60;95.60;;;;;;5073694;28;20110;-62
2022/08/09 11:35:27;;;;;;;;;;;32.00;96.00;;;;;;5074162;28;20058;-63
2022/08/09 11:37:56;;;;;;;1.27;0.30;;;31.70;95.20;;;;;;5073471;28;19916;-62
2022/08/09 11:40:22;;;;;;;0.38;0.30;;;30.90;96.70;;;;;;5073696;28;20036;-63
2022/08/09 11:42:53;;;;;;;1.20;0.32;;;30.20;97.40;;;;;;5073739;28;20090;-63
2022/08/09 11:45:37;;;;;;;2.40;0.60;;;29.70;96.80;;;;;;5073445;28;20084;-63
2022/08/09 11:48:18;;;;;;;1.58;0.50;;;30.60;98.00;;;;;;5073857;28;20033;-64
2022/08/09 11:50:56;;;;;;;1.10;0.70;;;29.60;97.10;;;;;;5073520;28;20142;-64
2022/08/09 11:53:22;;;;;;;1.10;0.43;;;30.30;96.40;;;;;;5073466;28;20075;-64
2022/08/09 11:55:50;;;;;;;0.30;0.20;;;29.80;97.40;;;;;;5073532;28;20112;-64
2022/08/09 11:58:15;;;;;;;1.23;0.40;;;29.60;97.40;;;;;;5073449;28;20083;-61
2022/08/09 12:00:59;;;;;;;2.92;0.40;;;29.80;97.60;;;;;;5074732;28;20072;-62
2022/08/09 12:03:26;;;;;;;2.03;0.73;;;29.90;97.70;;;;;;5077116;28;20040;-62
2022/08/09 12:05:55;;;;;;;2.17;0.75;;;30.20;97.00;;;;;;5077315;28;20043;-63
2022/08/09 12:08:22;;;;;;;1.10;0.60;;;29.40;97.20;;;;;;5077301;28;20115;-63
2022/08/09 12:10:50;;;;;;;2.47;0.55;;;28.90;97.90;;;;;;5077334;28;20068;-63
2022/08/09 12:13:31;;;;;;;8.25;0.75;;;28.90;97.70;;;;;;5076096;28;20048;-62
2022/08/09 12:16:12;;;;;;;0.70;0.45;;;30.30;97.20;;;;;;5077042;28;20036;-63
2022/08/09 12:18:44;;;;;;;1.45;0.28;;;30.90;96.80;;;;;;5077106;28;20048;-63
2022/08/09 12:21:10;;;;;;;1.52;0.43;;;31.40;96.40;;;;;;5076829;28;20479;-62
2022/08/09 12:23:44;;;;;;;2.55;0.35;;;31.40;95.90;;;;;;5076658;28;20098;-62
2022/08/09 12:26:11;;;;;;;0.65;0.32;;;31.10;96.00;;;;;;5075759;28;20085;-63
2022/08/09 12:28:39;;;;;;;1.05;0.50;;;31.00;96.50;;;;;;5076812;28;20115;-62
2022/08/09 12:31:22;;;;;;;1.58;0.50;;;30.00;96.30;;;;;;5076833;28;20047;-63
2022/08/09 12:33:48;;;;;;;2.67;0.50;;;29.30;96.10;;;;;;5076817;28;20045;-62
2022/08/09 12:36:14;;;;;;;2.15;0.40;;;30.20;97.40;;;;;;5076846;28;20052;-63
2022/08/09 12:38:40;;;;;;;2.05;0.50;;;31.10;96.90;;;;;;5076185;28;20039;-63
2022/08/09 12:41:06;;;;;;;2.22;0.40;;;30.30;96.30;;;;;;5076599;28;20123;-63
2022/08/09 12:43:32;;;;;;;1.30;0.50;;;29.80;96.40;;;;;;5076129;28;20079;-64
2022/08/09 12:45:58;;;;;;;2.10;0.35;;;30.30;97.10;;;;;;5076621;28;20451;-64
2022/08/09 12:48:27;;;;;;;1.15;0.50;;;30.90;97.10;;;;;;5076534;28;20086;-63
2022/08/09 12:50:52;;;;;;;;;;;31.10;96.40;;;;;;5076904;28;20082;-63
2022/08/09 12:53:26;;;;;;;0.70;0.35;;;30.90;95.70;;;;;;5076367;28;19916;-63
2022/08/09 12:56:02;;;;;;;0.98;0.20;;;30.00;95.30;;;;;;5076261;28;20044;-64